sensor_id;sensor_type;location;lat;lon;timestamp;P1;durP1;ratioP1;P2;durP2;ratioP2
60014;SDS011;45867;52.480;6.056;2022-10-31T00:01:26;10.32;;;3.60;;
60014;SDS011;45867;52.480;6.056;2022-10-31T00:04:01;11.63;;;3.63;;
60014;SDS011;45867;52.480;6.056;2022-10-31T00:06:28;8.25;;;3.40;;
60014;SDS011;45867;52.480;6.056;2022-10-31T00:09:02;13.50;;;3.67;;
60014;SDS011;45867;52.480;6.056;2022-10-31T00:11:32;13.07;;;3.63;;
60014;SDS011;45867;52.480;6.056;2022-10-31T00:14:02;16.90;;;4.30;;
60014;SDS011;45867;52.480;6.056;2022-10-31T00:16:28;11.93;;;4.18;;
60014;SDS011;45867;52.480;6.056;2022-10-31T00:18:57;9.60;;;3.88;;
60014;SDS011;45867;52.480;6.056;2022-10-31T00:21:25;14.00;;;4.35;;
60014;SDS011;45867;52.480;6.056;2022-10-31T00:23:53;14.98;;;4.07;;
60014;SDS011;45867;52.480;6.056;2022-10-31T00:26:19;10.73;;;3.85;;
60014;SDS011;45867;52.480;6.056;2022-10-31T00:28:53;8.43;;;4.22;;
60014;SDS011;45867;52.480;6.056;2022-10-31T00:31:19;17.52;;;4.35;;
60014;SDS011;45867;52.480;6.056;2022-10-31T00:33:49;13.23;;;4.28;;
60014;SDS011;45867;52.480;6.056;2022-10-31T00:36:16;13.95;;;4.70;;
60014;SDS011;45867;52.480;6.056;2022-10-31T00:38:44;11.13;;;4.18;;
60014;SDS011;45867;52.480;6.056;2022-10-31T00:41:13;11.68;;;4.47;;
60014;SDS011;45867;52.480;6.056;2022-10-31T00:43:41;13.15;;;5.15;;
60014;SDS011;45867;52.480;6.056;2022-10-31T00:46:14;12.43;;;5.20;;
60014;SDS011;45867;52.480;6.056;2022-10-31T00:48:41;13.07;;;5.03;;
60014;SDS011;45867;52.480;6.056;2022-10-31T00:51:09;14.93;;;5.07;;
60014;SDS011;45867;52.480;6.056;2022-10-31T00:53:35;13.75;;;5.13;;
60014;SDS011;45867;52.480;6.056;2022-10-31T00:56:02;17.05;;;5.50;;
60014;SDS011;45867;52.480;6.056;2022-10-31T00:58:39;11.52;;;5.43;;
60014;SDS011;45867;52.480;6.056;2022-10-31T01:01:10;10.80;;;5.20;;
60014;SDS011;45867;52.480;6.056;2022-10-31T01:03:37;18.50;;;5.90;;
60014;SDS011;45867;52.480;6.056;2022-10-31T01:06:07;15.75;;;6.13;;
60014;SDS011;45867;52.480;6.056;2022-10-31T01:08:37;15.93;;;5.72;;
60014;SDS011;45867;52.480;6.056;2022-10-31T01:11:09;15.38;;;5.85;;
60014;SDS011;45867;52.480;6.056;2022-10-31T01:13:47;14.85;;;5.88;;
60014;SDS011;45867;52.480;6.056;2022-10-31T01:16:15;11.63;;;5.28;;
60014;SDS011;45867;52.480;6.056;2022-10-31T01:18:45;12.45;;;5.95;;
60014;SDS011;45867;52.480;6.056;2022-10-31T01:21:13;20.00;;;5.38;;
60014;SDS011;45867;52.480;6.056;2022-10-31T01:23:43;15.20;;;6.07;;
60014;SDS011;45867;52.480;6.056;2022-10-31T01:26:10;11.38;;;5.75;;
60014;SDS011;45867;52.480;6.056;2022-10-31T01:29:00;16.02;;;6.13;;
60014;SDS011;45867;52.480;6.056;2022-10-31T01:31:26;16.90;;;6.28;;
60014;SDS011;45867;52.480;6.056;2022-10-31T01:33:53;15.00;;;6.00;;
60014;SDS011;45867;52.480;6.056;2022-10-31T01:36:21;14.13;;;5.68;;
60014;SDS011;45867;52.480;6.056;2022-10-31T01:38:48;10.38;;;5.32;;
60014;SDS011;45867;52.480;6.056;2022-10-31T01:41:17;11.15;;;5.20;;
60014;SDS011;45867;52.480;6.056;2022-10-31T01:43:46;12.27;;;5.65;;
60014;SDS011;45867;52.480;6.056;2022-10-31T01:46:36;15.07;;;6.15;;
60014;SDS011;45867;52.480;6.056;2022-10-31T01:49:11;12.98;;;5.47;;
60014;SDS011;45867;52.480;6.056;2022-10-31T01:51:41;19.15;;;5.80;;
60014;SDS011;45867;52.480;6.056;2022-10-31T01:54:30;19.40;;;6.35;;
60014;SDS011;45867;52.480;6.056;2022-10-31T01:57:03;13.95;;;6.03;;
60014;SDS011;45867;52.480;6.056;2022-10-31T01:59:34;11.77;;;5.65;;
60014;SDS011;45867;52.480;6.056;2022-10-31T02:02:07;11.75;;;5.20;;
60014;SDS011;45867;52.480;6.056;2022-10-31T02:04:33;16.75;;;5.80;;
60014;SDS011;45867;52.480;6.056;2022-10-31T02:07:03;12.20;;;5.43;;
60014;SDS011;45867;52.480;6.056;2022-10-31T02:09:34;19.25;;;6.60;;
60014;SDS011;45867;52.480;6.056;2022-10-31T02:12:01;16.10;;;5.95;;
60014;SDS011;45867;52.480;6.056;2022-10-31T02:14:29;13.77;;;6.10;;
60014;SDS011;45867;52.480;6.056;2022-10-31T02:16:56;14.73;;;6.20;;
60014;SDS011;45867;52.480;6.056;2022-10-31T02:22:16;11.25;;;5.63;;
60014;SDS011;45867;52.480;6.056;2022-10-31T02:39:09;13.48;;;5.30;;
60014;SDS011;45867;52.480;6.056;2022-10-31T02:44:43;10.48;;;6.07;;
60014;SDS011;45867;52.480;6.056;2022-10-31T02:47:15;13.98;;;6.13;;
60014;SDS011;45867;52.480;6.056;2022-10-31T02:52:30;14.77;;;6.68;;
60014;SDS011;45867;52.480;6.056;2022-10-31T02:54:57;17.15;;;6.82;;
60014;SDS011;45867;52.480;6.056;2022-10-31T02:57:29;14.48;;;6.63;;
60014;SDS011;45867;52.480;6.056;2022-10-31T03:00:00;16.67;;;7.05;;
60014;SDS011;45867;52.480;6.056;2022-10-31T03:02:36;14.50;;;7.20;;
60014;SDS011;45867;52.480;6.056;2022-10-31T03:10:45;20.20;;;7.43;;
60014;SDS011;45867;52.480;6.056;2022-10-31T03:13:39;15.52;;;7.03;;
60014;SDS011;45867;52.480;6.056;2022-10-31T03:16:31;12.55;;;7.03;;
60014;SDS011;45867;52.480;6.056;2022-10-31T03:19:17;10.57;;;6.40;;
60014;SDS011;45867;52.480;6.056;2022-10-31T03:24:35;13.40;;;6.28;;
60014;SDS011;45867;52.480;6.056;2022-10-31T03:27:03;11.70;;;6.43;;
60014;SDS011;45867;52.480;6.056;2022-10-31T03:29:31;17.38;;;7.60;;
60014;SDS011;45867;52.480;6.056;2022-10-31T03:32:04;16.55;;;7.63;;
60014;SDS011;45867;52.480;6.056;2022-10-31T03:34:35;18.45;;;8.40;;
60014;SDS011;45867;52.480;6.056;2022-10-31T03:37:04;24.65;;;7.90;;
60014;SDS011;45867;52.480;6.056;2022-10-31T03:39:34;17.70;;;8.95;;
60014;SDS011;45867;52.480;6.056;2022-10-31T03:42:04;17.00;;;8.30;;
60014;SDS011;45867;52.480;6.056;2022-10-31T03:44:33;29.08;;;9.30;;
60014;SDS011;45867;52.480;6.056;2022-10-31T03:47:00;16.35;;;8.75;;
60014;SDS011;45867;52.480;6.056;2022-10-31T03:49:28;21.90;;;9.57;;
60014;SDS011;45867;52.480;6.056;2022-10-31T03:51:55;18.17;;;9.73;;
60014;SDS011;45867;52.480;6.056;2022-10-31T03:55:05;24.65;;;9.80;;
60014;SDS011;45867;52.480;6.056;2022-10-31T03:57:33;19.60;;;8.85;;
60014;SDS011;45867;52.480;6.056;2022-10-31T04:00:05;21.20;;;10.10;;
60014;SDS011;45867;52.480;6.056;2022-10-31T04:05:04;26.55;;;10.60;;
60014;SDS011;45867;52.480;6.056;2022-10-31T04:07:36;17.08;;;9.50;;
60014;SDS011;45867;52.480;6.056;2022-10-31T04:10:05;19.15;;;10.23;;
60014;SDS011;45867;52.480;6.056;2022-10-31T04:12:34;17.63;;;9.75;;
60014;SDS011;45867;52.480;6.056;2022-10-31T04:15:02;19.83;;;9.98;;
60014;SDS011;45867;52.480;6.056;2022-10-31T04:17:31;21.75;;;10.15;;
60014;SDS011;45867;52.480;6.056;2022-10-31T04:20:00;18.70;;;9.90;;
60014;SDS011;45867;52.480;6.056;2022-10-31T04:22:26;19.83;;;10.30;;
60014;SDS011;45867;52.480;6.056;2022-10-31T04:24:51;22.15;;;10.02;;
60014;SDS011;45867;52.480;6.056;2022-10-31T04:27:16;20.25;;;8.98;;
60014;SDS011;45867;52.480;6.056;2022-10-31T04:29:42;19.00;;;10.18;;
60014;SDS011;45867;52.480;6.056;2022-10-31T04:32:07;19.75;;;10.70;;
60014;SDS011;45867;52.480;6.056;2022-10-31T04:34:33;22.58;;;10.90;;
60014;SDS011;45867;52.480;6.056;2022-10-31T04:36:58;16.73;;;9.70;;
60014;SDS011;45867;52.480;6.056;2022-10-31T04:39:23;18.63;;;9.50;;
60014;SDS011;45867;52.480;6.056;2022-10-31T04:41:48;17.52;;;9.30;;
60014;SDS011;45867;52.480;6.056;2022-10-31T04:44:15;19.42;;;9.95;;
60014;SDS011;45867;52.480;6.056;2022-10-31T04:46:41;23.25;;;10.00;;
60014;SDS011;45867;52.480;6.056;2022-10-31T04:49:06;17.63;;;9.57;;
60014;SDS011;45867;52.480;6.056;2022-10-31T04:51:32;24.08;;;10.32;;
60014;SDS011;45867;52.480;6.056;2022-10-31T04:53:57;15.18;;;8.88;;
60014;SDS011;45867;52.480;6.056;2022-10-31T04:56:22;17.23;;;9.27;;
60014;SDS011;45867;52.480;6.056;2022-10-31T04:58:48;17.80;;;8.57;;
60014;SDS011;45867;52.480;6.056;2022-10-31T05:01:13;12.10;;;8.25;;
60014;SDS011;45867;52.480;6.056;2022-10-31T05:03:38;13.43;;;7.85;;
60014;SDS011;45867;52.480;6.056;2022-10-31T05:06:05;13.30;;;7.30;;
60014;SDS011;45867;52.480;6.056;2022-10-31T05:08:30;12.95;;;7.15;;
60014;SDS011;45867;52.480;6.056;2022-10-31T05:10:59;12.55;;;7.30;;
60014;SDS011;45867;52.480;6.056;2022-10-31T05:13:44;13.82;;;7.07;;
60014;SDS011;45867;52.480;6.056;2022-10-31T05:16:24;13.10;;;8.00;;
60014;SDS011;45867;52.480;6.056;2022-10-31T05:18:49;11.25;;;7.22;;
60014;SDS011;45867;52.480;6.056;2022-10-31T05:21:14;12.75;;;8.35;;
60014;SDS011;45867;52.480;6.056;2022-10-31T05:23:40;16.33;;;9.13;;
60014;SDS011;45867;52.480;6.056;2022-10-31T05:26:05;16.30;;;9.15;;
60014;SDS011;45867;52.480;6.056;2022-10-31T05:28:30;19.00;;;9.25;;
60014;SDS011;45867;52.480;6.056;2022-10-31T05:30:56;15.25;;;8.63;;
60014;SDS011;45867;52.480;6.056;2022-10-31T05:33:21;17.38;;;9.10;;
60014;SDS011;45867;52.480;6.056;2022-10-31T05:35:46;25.75;;;13.20;;
60014;SDS011;45867;52.480;6.056;2022-10-31T05:38:12;34.05;;;15.40;;
60014;SDS011;45867;52.480;6.056;2022-10-31T05:40:38;31.80;;;15.40;;
60014;SDS011;45867;52.480;6.056;2022-10-31T05:43:03;25.73;;;14.90;;
60014;SDS011;45867;52.480;6.056;2022-10-31T05:45:28;26.35;;;13.77;;
60014;SDS011;45867;52.480;6.056;2022-10-31T05:47:58;27.95;;;12.63;;
60014;SDS011;45867;52.480;6.056;2022-10-31T05:50:25;23.20;;;12.57;;
60014;SDS011;45867;52.480;6.056;2022-10-31T05:52:56;23.10;;;11.00;;
60014;SDS011;45867;52.480;6.056;2022-10-31T05:55:27;25.65;;;11.88;;
60014;SDS011;45867;52.480;6.056;2022-10-31T05:57:53;28.25;;;11.43;;
60014;SDS011;45867;52.480;6.056;2022-10-31T06:00:20;24.98;;;11.57;;
60014;SDS011;45867;52.480;6.056;2022-10-31T06:02:48;25.08;;;11.95;;
60014;SDS011;45867;52.480;6.056;2022-10-31T06:05:16;24.38;;;12.55;;
60014;SDS011;45867;52.480;6.056;2022-10-31T06:07:42;21.02;;;12.18;;
60014;SDS011;45867;52.480;6.056;2022-10-31T06:10:08;22.55;;;11.27;;
60014;SDS011;45867;52.480;6.056;2022-10-31T06:12:34;18.88;;;10.40;;
60014;SDS011;45867;52.480;6.056;2022-10-31T06:15:05;19.23;;;9.52;;
60014;SDS011;45867;52.480;6.056;2022-10-31T06:17:33;18.15;;;9.30;;
60014;SDS011;45867;52.480;6.056;2022-10-31T06:19:59;19.10;;;9.35;;
60014;SDS011;45867;52.480;6.056;2022-10-31T06:22:25;28.70;;;9.20;;
60014;SDS011;45867;52.480;6.056;2022-10-31T06:24:50;15.43;;;9.18;;
60014;SDS011;45867;52.480;6.056;2022-10-31T06:27:15;19.48;;;8.98;;
60014;SDS011;45867;52.480;6.056;2022-10-31T06:29:41;15.10;;;9.60;;
60014;SDS011;45867;52.480;6.056;2022-10-31T06:32:09;16.88;;;9.38;;
60014;SDS011;45867;52.480;6.056;2022-10-31T06:34:38;17.30;;;9.77;;
60014;SDS011;45867;52.480;6.056;2022-10-31T06:37:08;17.92;;;9.77;;
60014;SDS011;45867;52.480;6.056;2022-10-31T06:39:34;25.80;;;9.48;;
60014;SDS011;45867;52.480;6.056;2022-10-31T06:42:00;29.52;;;9.20;;
60014;SDS011;45867;52.480;6.056;2022-10-31T06:44:26;48.75;;;8.88;;
60014;SDS011;45867;52.480;6.056;2022-10-31T06:46:51;44.85;;;9.05;;
60014;SDS011;45867;52.480;6.056;2022-10-31T06:49:16;50.63;;;8.68;;
60014;SDS011;45867;52.480;6.056;2022-10-31T06:51:42;39.55;;;9.80;;
60014;SDS011;45867;52.480;6.056;2022-10-31T06:54:07;34.33;;;9.80;;
60014;SDS011;45867;52.480;6.056;2022-10-31T06:56:36;46.28;;;10.27;;
60014;SDS011;45867;52.480;6.056;2022-10-31T06:59:01;25.77;;;10.45;;
60014;SDS011;45867;52.480;6.056;2022-10-31T07:01:27;16.77;;;9.73;;
60014;SDS011;45867;52.480;6.056;2022-10-31T07:03:52;17.52;;;9.75;;
60014;SDS011;45867;52.480;6.056;2022-10-31T07:06:18;19.52;;;10.70;;
60014;SDS011;45867;52.480;6.056;2022-10-31T07:08:43;21.27;;;11.70;;
60014;SDS011;45867;52.480;6.056;2022-10-31T07:11:08;29.83;;;11.90;;
60014;SDS011;45867;52.480;6.056;2022-10-31T07:13:35;27.77;;;13.00;;
60014;SDS011;45867;52.480;6.056;2022-10-31T07:16:01;21.65;;;12.50;;
60014;SDS011;45867;52.480;6.056;2022-10-31T07:18:28;48.45;;;15.43;;
60014;SDS011;45867;52.480;6.056;2022-10-31T07:20:54;62.28;;;18.20;;
60014;SDS011;45867;52.480;6.056;2022-10-31T07:23:19;52.60;;;19.00;;
60014;SDS011;45867;52.480;6.056;2022-10-31T07:25:45;53.50;;;19.10;;
60014;SDS011;45867;52.480;6.056;2022-10-31T07:28:10;89.22;;;19.20;;
60014;SDS011;45867;52.480;6.056;2022-10-31T07:30:37;85.97;;;16.80;;
60014;SDS011;45867;52.480;6.056;2022-10-31T07:33:02;102.95;;;15.90;;
60014;SDS011;45867;52.480;6.056;2022-10-31T07:35:29;74.20;;;15.55;;
60014;SDS011;45867;52.480;6.056;2022-10-31T07:37:55;64.50;;;15.23;;
60014;SDS011;45867;52.480;6.056;2022-10-31T07:40:21;50.13;;;13.32;;
60014;SDS011;45867;52.480;6.056;2022-10-31T07:42:49;35.97;;;13.48;;
60014;SDS011;45867;52.480;6.056;2022-10-31T07:45:18;30.45;;;13.50;;
60014;SDS011;45867;52.480;6.056;2022-10-31T07:47:48;26.90;;;15.02;;
60014;SDS011;45867;52.480;6.056;2022-10-31T07:50:16;39.75;;;16.75;;
60014;SDS011;45867;52.480;6.056;2022-10-31T07:52:42;71.78;;;16.75;;
60014;SDS011;45867;52.480;6.056;2022-10-31T07:55:08;63.58;;;16.25;;
60014;SDS011;45867;52.480;6.056;2022-10-31T07:57:34;82.13;;;17.48;;
60014;SDS011;45867;52.480;6.056;2022-10-31T07:59:59;102.50;;;16.95;;
60014;SDS011;45867;52.480;6.056;2022-10-31T08:02:25;69.80;;;17.25;;
60014;SDS011;45867;52.480;6.056;2022-10-31T08:04:51;133.52;;;16.85;;
60014;SDS011;45867;52.480;6.056;2022-10-31T08:07:17;78.65;;;15.50;;
60014;SDS011;45867;52.480;6.056;2022-10-31T08:09:42;82.32;;;15.32;;
60014;SDS011;45867;52.480;6.056;2022-10-31T08:12:08;71.63;;;15.00;;
60014;SDS011;45867;52.480;6.056;2022-10-31T08:14:46;73.40;;;15.70;;
60014;SDS011;45867;52.480;6.056;2022-10-31T08:17:15;52.67;;;14.70;;
60014;SDS011;45867;52.480;6.056;2022-10-31T08:19:40;69.63;;;16.27;;
60014;SDS011;45867;52.480;6.056;2022-10-31T08:22:05;95.35;;;16.65;;
60014;SDS011;45867;52.480;6.056;2022-10-31T08:24:31;82.55;;;16.70;;
60014;SDS011;45867;52.480;6.056;2022-10-31T08:26:56;70.03;;;17.65;;
60014;SDS011;45867;52.480;6.056;2022-10-31T08:29:21;75.55;;;18.45;;
60014;SDS011;45867;52.480;6.056;2022-10-31T08:31:47;41.97;;;18.15;;
60014;SDS011;45867;52.480;6.056;2022-10-31T08:34:12;39.85;;;18.05;;
60014;SDS011;45867;52.480;6.056;2022-10-31T08:36:38;45.67;;;18.27;;
60014;SDS011;45867;52.480;6.056;2022-10-31T08:39:03;36.53;;;19.27;;
60014;SDS011;45867;52.480;6.056;2022-10-31T08:41:29;34.88;;;18.05;;
60014;SDS011;45867;52.480;6.056;2022-10-31T08:43:54;39.78;;;18.80;;
60014;SDS011;45867;52.480;6.056;2022-10-31T08:46:20;42.35;;;20.25;;
60014;SDS011;45867;52.480;6.056;2022-10-31T08:48:48;42.67;;;20.30;;
60014;SDS011;45867;52.480;6.056;2022-10-31T08:51:14;38.05;;;19.88;;
60014;SDS011;45867;52.480;6.056;2022-10-31T08:53:39;39.17;;;20.02;;
60014;SDS011;45867;52.480;6.056;2022-10-31T08:56:05;36.33;;;19.85;;
60014;SDS011;45867;52.480;6.056;2022-10-31T08:58:30;39.63;;;20.30;;
60014;SDS011;45867;52.480;6.056;2022-10-31T09:00:58;32.30;;;18.63;;
60014;SDS011;45867;52.480;6.056;2022-10-31T09:03:25;30.35;;;17.25;;
60014;SDS011;45867;52.480;6.056;2022-10-31T09:05:59;31.20;;;17.33;;
60014;SDS011;45867;52.480;6.056;2022-10-31T09:08:26;30.20;;;16.95;;
60014;SDS011;45867;52.480;6.056;2022-10-31T09:10:59;33.80;;;16.38;;
60014;SDS011;45867;52.480;6.056;2022-10-31T09:13:24;35.63;;;18.92;;
60014;SDS011;45867;52.480;6.056;2022-10-31T09:15:50;35.30;;;19.05;;
60014;SDS011;45867;52.480;6.056;2022-10-31T09:18:18;35.65;;;18.00;;
60014;SDS011;45867;52.480;6.056;2022-10-31T09:20:46;33.83;;;18.63;;
60014;SDS011;45867;52.480;6.056;2022-10-31T09:23:17;37.80;;;18.75;;
60014;SDS011;45867;52.480;6.056;2022-10-31T09:25:44;35.80;;;18.33;;
60014;SDS011;45867;52.480;6.056;2022-10-31T09:28:11;39.05;;;18.60;;
60014;SDS011;45867;52.480;6.056;2022-10-31T09:30:38;36.75;;;18.27;;
60014;SDS011;45867;52.480;6.056;2022-10-31T09:33:05;33.25;;;17.63;;
60014;SDS011;45867;52.480;6.056;2022-10-31T09:38:02;37.35;;;17.13;;
60014;SDS011;45867;52.480;6.056;2022-10-31T09:40:33;33.92;;;17.33;;
60014;SDS011;45867;52.480;6.056;2022-10-31T09:43:03;30.83;;;16.88;;
60014;SDS011;45867;52.480;6.056;2022-10-31T09:45:50;34.05;;;16.10;;
60014;SDS011;45867;52.480;6.056;2022-10-31T09:51:16;33.72;;;16.42;;
60014;SDS011;45867;52.480;6.056;2022-10-31T09:53:54;38.55;;;17.65;;
60014;SDS011;45867;52.480;6.056;2022-10-31T09:56:25;37.97;;;16.50;;
60014;SDS011;45867;52.480;6.056;2022-10-31T09:58:53;32.25;;;16.80;;
60014;SDS011;45867;52.480;6.056;2022-10-31T10:01:34;35.00;;;16.92;;
60014;SDS011;45867;52.480;6.056;2022-10-31T10:10:23;28.88;;;15.75;;
60014;SDS011;45867;52.480;6.056;2022-10-31T10:13:18;34.28;;;16.20;;
60014;SDS011;45867;52.480;6.056;2022-10-31T10:21:20;31.02;;;15.05;;
60014;SDS011;45867;52.480;6.056;2022-10-31T10:24:08;36.53;;;14.80;;
60014;SDS011;45867;52.480;6.056;2022-10-31T10:27:22;29.15;;;13.40;;
60014;SDS011;45867;52.480;6.056;2022-10-31T10:29:58;29.00;;;13.32;;
60014;SDS011;45867;52.480;6.056;2022-10-31T10:32:29;28.13;;;14.18;;
60014;SDS011;45867;52.480;6.056;2022-10-31T10:34:59;26.20;;;14.77;;
60014;SDS011;45867;52.480;6.056;2022-10-31T10:37:42;30.08;;;14.55;;
60014;SDS011;45867;52.480;6.056;2022-10-31T10:40:13;30.20;;;14.93;;
60014;SDS011;45867;52.480;6.056;2022-10-31T10:42:44;30.63;;;14.80;;
60014;SDS011;45867;52.480;6.056;2022-10-31T10:45:42;27.73;;;14.95;;
60014;SDS011;45867;52.480;6.056;2022-10-31T10:51:19;30.90;;;15.25;;
60014;SDS011;45867;52.480;6.056;2022-10-31T10:54:07;32.17;;;14.85;;
60014;SDS011;45867;52.480;6.056;2022-10-31T10:56:59;30.27;;;14.40;;
60014;SDS011;45867;52.480;6.056;2022-10-31T10:59:25;28.27;;;14.10;;
60014;SDS011;45867;52.480;6.056;2022-10-31T11:01:55;28.90;;;14.43;;
60014;SDS011;45867;52.480;6.056;2022-10-31T11:07:02;24.33;;;14.07;;
60014;SDS011;45867;52.480;6.056;2022-10-31T11:09:33;25.88;;;14.60;;
60014;SDS011;45867;52.480;6.056;2022-10-31T11:12:00;26.17;;;13.85;;
60014;SDS011;45867;52.480;6.056;2022-10-31T11:14:47;30.42;;;14.00;;
60014;SDS011;45867;52.480;6.056;2022-10-31T11:17:31;27.70;;;13.88;;
60014;SDS011;45867;52.480;6.056;2022-10-31T11:20:06;23.95;;;13.95;;
60014;SDS011;45867;52.480;6.056;2022-10-31T11:22:59;30.70;;;15.23;;
60014;SDS011;45867;52.480;6.056;2022-10-31T11:25:58;27.15;;;14.27;;
60014;SDS011;45867;52.480;6.056;2022-10-31T11:28:29;33.53;;;14.45;;
60014;SDS011;45867;52.480;6.056;2022-10-31T11:31:01;27.05;;;14.55;;
60014;SDS011;45867;52.480;6.056;2022-10-31T11:33:36;33.35;;;15.07;;
60014;SDS011;45867;52.480;6.056;2022-10-31T11:39:02;27.00;;;13.88;;
60014;SDS011;45867;52.480;6.056;2022-10-31T11:41:34;27.58;;;13.45;;
60014;SDS011;45867;52.480;6.056;2022-10-31T11:44:09;29.52;;;14.07;;
60014;SDS011;45867;52.480;6.056;2022-10-31T11:49:11;22.02;;;12.73;;
60014;SDS011;45867;52.480;6.056;2022-10-31T11:51:54;23.48;;;12.13;;
60014;SDS011;45867;52.480;6.056;2022-10-31T11:54:29;25.92;;;11.82;;
60014;SDS011;45867;52.480;6.056;2022-10-31T11:59:30;24.85;;;12.30;;
60014;SDS011;45867;52.480;6.056;2022-10-31T12:01:57;21.60;;;11.00;;
60014;SDS011;45867;52.480;6.056;2022-10-31T12:04:32;27.65;;;12.32;;
60014;SDS011;45867;52.480;6.056;2022-10-31T12:07:07;24.30;;;11.55;;
60014;SDS011;45867;52.480;6.056;2022-10-31T12:09:33;27.60;;;11.65;;
60014;SDS011;45867;52.480;6.056;2022-10-31T12:21:26;20.77;;;10.63;;
60014;SDS011;45867;52.480;6.056;2022-10-31T12:26:20;21.20;;;9.98;;
60014;SDS011;45867;52.480;6.056;2022-10-31T12:29:07;18.42;;;10.13;;
60014;SDS011;45867;52.480;6.056;2022-10-31T12:39:55;15.82;;;9.82;;
60014;SDS011;45867;52.480;6.056;2022-10-31T12:45:55;17.73;;;8.77;;
60014;SDS011;45867;52.480;6.056;2022-10-31T12:54:02;17.98;;;9.57;;
60014;SDS011;45867;52.480;6.056;2022-10-31T12:56:36;19.00;;;8.45;;
60014;SDS011;45867;52.480;6.056;2022-10-31T12:59:27;21.27;;;8.88;;
60014;SDS011;45867;52.480;6.056;2022-10-31T13:04:53;16.58;;;8.07;;
60014;SDS011;45867;52.480;6.056;2022-10-31T13:07:42;21.60;;;8.80;;
60014;SDS011;45867;52.480;6.056;2022-10-31T13:10:19;20.75;;;8.10;;
60014;SDS011;45867;52.480;6.056;2022-10-31T13:12:46;18.15;;;8.23;;
60014;SDS011;45867;52.480;6.056;2022-10-31T13:17:53;17.50;;;8.30;;
60014;SDS011;45867;52.480;6.056;2022-10-31T13:20:23;23.02;;;9.02;;
60014;SDS011;45867;52.480;6.056;2022-10-31T13:22:53;20.58;;;10.25;;
60014;SDS011;45867;52.480;6.056;2022-10-31T13:25:28;21.85;;;10.73;;
60014;SDS011;45867;52.480;6.056;2022-10-31T13:28:05;24.75;;;11.90;;
60014;SDS011;45867;52.480;6.056;2022-10-31T13:30:45;24.80;;;12.10;;
60014;SDS011;45867;52.480;6.056;2022-10-31T13:33:18;30.52;;;12.70;;
60014;SDS011;45867;52.480;6.056;2022-10-31T13:36:03;28.63;;;12.82;;
60014;SDS011;45867;52.480;6.056;2022-10-31T13:41:46;30.80;;;12.60;;
60014;SDS011;45867;52.480;6.056;2022-10-31T13:44:20;33.13;;;12.65;;
60014;SDS011;45867;52.480;6.056;2022-10-31T13:46:50;39.78;;;14.20;;
60014;SDS011;45867;52.480;6.056;2022-10-31T13:54:58;37.00;;;14.25;;
60014;SDS011;45867;52.480;6.056;2022-10-31T13:57:30;32.28;;;13.43;;
60014;SDS011;45867;52.480;6.056;2022-10-31T14:03:17;26.38;;;12.65;;
60014;SDS011;45867;52.480;6.056;2022-10-31T14:08:34;28.90;;;12.32;;
60014;SDS011;45867;52.480;6.056;2022-10-31T14:11:01;25.92;;;12.32;;
60014;SDS011;45867;52.480;6.056;2022-10-31T14:13:33;27.25;;;11.75;;
60014;SDS011;45867;52.480;6.056;2022-10-31T14:16:20;25.13;;;10.88;;
60014;SDS011;45867;52.480;6.056;2022-10-31T14:19:00;22.80;;;10.63;;
60014;SDS011;45867;52.480;6.056;2022-10-31T14:21:30;23.27;;;10.70;;
60014;SDS011;45867;52.480;6.056;2022-10-31T14:24:02;24.08;;;10.15;;
60014;SDS011;45867;52.480;6.056;2022-10-31T14:26:51;23.50;;;10.77;;
60014;SDS011;45867;52.480;6.056;2022-10-31T14:32:17;22.38;;;9.68;;
60014;SDS011;45867;52.480;6.056;2022-10-31T14:50:38;25.85;;;11.20;;
60014;SDS011;45867;52.480;6.056;2022-10-31T14:53:11;28.10;;;10.85;;
60014;SDS011;45867;52.480;6.056;2022-10-31T14:55:43;27.27;;;11.05;;
60014;SDS011;45867;52.480;6.056;2022-10-31T14:58:13;28.50;;;11.02;;
60014;SDS011;45867;52.480;6.056;2022-10-31T15:00:43;28.10;;;11.70;;
60014;SDS011;45867;52.480;6.056;2022-10-31T15:03:11;30.45;;;12.05;;
60014;SDS011;45867;52.480;6.056;2022-10-31T15:14:19;28.48;;;10.55;;
60014;SDS011;45867;52.480;6.056;2022-10-31T15:16:47;26.33;;;10.00;;
60014;SDS011;45867;52.480;6.056;2022-10-31T15:19:15;23.90;;;10.00;;
60014;SDS011;45867;52.480;6.056;2022-10-31T15:21:46;21.85;;;9.18;;
60014;SDS011;45867;52.480;6.056;2022-10-31T15:24:14;21.80;;;10.10;;
60014;SDS011;45867;52.480;6.056;2022-10-31T15:26:43;23.05;;;10.02;;
60014;SDS011;45867;52.480;6.056;2022-10-31T15:29:12;22.00;;;9.95;;
60014;SDS011;45867;52.480;6.056;2022-10-31T15:31:48;20.50;;;9.90;;
60014;SDS011;45867;52.480;6.056;2022-10-31T15:34:34;22.98;;;11.48;;
60014;SDS011;45867;52.480;6.056;2022-10-31T15:37:04;25.13;;;10.80;;
60014;SDS011;45867;52.480;6.056;2022-10-31T15:39:30;27.98;;;11.45;;
60014;SDS011;45867;52.480;6.056;2022-10-31T15:41:56;23.65;;;11.95;;
60014;SDS011;45867;52.480;6.056;2022-10-31T15:44:41;25.20;;;10.80;;
60014;SDS011;45867;52.480;6.056;2022-10-31T15:47:18;21.83;;;10.30;;
60014;SDS011;45867;52.480;6.056;2022-10-31T15:49:48;28.02;;;11.88;;
60014;SDS011;45867;52.480;6.056;2022-10-31T15:57:39;27.23;;;12.52;;
60014;SDS011;45867;52.480;6.056;2022-10-31T16:00:27;26.60;;;12.70;;
60014;SDS011;45867;52.480;6.056;2022-10-31T16:05:55;34.83;;;13.82;;
60014;SDS011;45867;52.480;6.056;2022-10-31T16:08:23;30.27;;;14.23;;
60014;SDS011;45867;52.480;6.056;2022-10-31T16:13:53;30.67;;;14.32;;
60014;SDS011;45867;52.480;6.056;2022-10-31T16:18:47;34.22;;;15.27;;
60014;SDS011;45867;52.480;6.056;2022-10-31T16:21:14;31.98;;;14.82;;
60014;SDS011;45867;52.480;6.056;2022-10-31T16:23:44;29.63;;;14.52;;
60014;SDS011;45867;52.480;6.056;2022-10-31T16:26:19;30.73;;;14.82;;
60014;SDS011;45867;52.480;6.056;2022-10-31T16:31:24;36.30;;;16.08;;
60014;SDS011;45867;52.480;6.056;2022-10-31T16:34:29;35.33;;;16.52;;
60014;SDS011;45867;52.480;6.056;2022-10-31T16:39:13;36.17;;;17.08;;
60014;SDS011;45867;52.480;6.056;2022-10-31T16:41:40;32.50;;;16.45;;
60014;SDS011;45867;52.480;6.056;2022-10-31T16:44:18;35.70;;;16.92;;
60014;SDS011;45867;52.480;6.056;2022-10-31T16:46:47;37.50;;;17.77;;
60014;SDS011;45867;52.480;6.056;2022-10-31T16:49:12;47.25;;;19.02;;
60014;SDS011;45867;52.480;6.056;2022-10-31T16:51:40;39.42;;;19.50;;
60014;SDS011;45867;52.480;6.056;2022-10-31T16:54:05;38.38;;;18.40;;
60014;SDS011;45867;52.480;6.056;2022-10-31T16:56:32;42.22;;;18.83;;
60014;SDS011;45867;52.480;6.056;2022-10-31T16:59:00;49.20;;;19.35;;
60014;SDS011;45867;52.480;6.056;2022-10-31T17:01:28;42.58;;;19.75;;
60014;SDS011;45867;52.480;6.056;2022-10-31T17:03:55;37.42;;;19.00;;
60014;SDS011;45867;52.480;6.056;2022-10-31T17:06:21;34.15;;;18.92;;
60014;SDS011;45867;52.480;6.056;2022-10-31T17:08:47;46.92;;;20.88;;
60014;SDS011;45867;52.480;6.056;2022-10-31T17:11:14;42.13;;;19.80;;
60014;SDS011;45867;52.480;6.056;2022-10-31T17:13:43;45.30;;;20.80;;
60014;SDS011;45867;52.480;6.056;2022-10-31T17:16:09;42.97;;;19.92;;
60014;SDS011;45867;52.480;6.056;2022-10-31T17:18:37;41.33;;;20.52;;
60014;SDS011;45867;52.480;6.056;2022-10-31T17:21:03;41.33;;;20.40;;
60014;SDS011;45867;52.480;6.056;2022-10-31T17:23:30;39.60;;;19.65;;
60014;SDS011;45867;52.480;6.056;2022-10-31T17:25:57;51.30;;;19.95;;